Inkster, North Dakota
Current Conditions -  °F | °C
As of 6:18 AM on Friday 28 Nov 2014 (Local Time) from KRDR Reporting Station
Overcast Overcast  
Wind Chill:   Ceiling: 400
Heat Index: 10°   Visibility: 10mi
Dew Point:   Wind: 7mph
Humidity: 85%   Direction: 140°SE
Pressure: 29.99"   Gusts: NA
Location:  48.15°N, 97.64°W
Report Text: KRDR 281218Z AUTO 14006KT 10SM OVC004 M12/M14 A2999 RMK AO2
Loading
Personal Weather Stations






























Interactive Weather Map New forecast layout! Learn more

10-Day Weather Forecast

Advertisements
Track Severe Weather on mobile